Time;durP1;ratioP1;P1;durP2;ratioP2;P2;SDS_P1;SDS_P2;PMS_P1;PMS_P2;Temp;Humidity;BMP_temperature;BMP_pressure;BME280_temperature;BME280_humidity;BME280_pressure;Samples;Min_cycle;Max_cycle;Signal;HPM_P1;HPM_P2
2023/09/21 00:00:29;;;;;;;4.13;3.13;;;17.70;1.00;;;;;;5107066;27;20568;-85
2023/09/21 00:02:57;;;;;;;6.20;3.50;;;17.70;1.00;;;;;;5109236;27;20485;-84
2023/09/21 00:05:31;;;;;;;5.07;4.10;;;17.60;1.00;;;;;;5112091;27;20473;-84
2023/09/21 00:08:01;;;;;;;3.77;3.07;;;17.60;1.00;;;;;;5107893;27;20469;-82
2023/09/21 00:10:31;;;;;;;4.20;3.20;;;17.50;1.00;;;;;;5107361;27;20496;-83
2023/09/21 00:12:59;;;;;;;3.60;3.30;;;17.50;1.00;;;;;;5113726;27;21041;-83
2023/09/21 00:15:28;;;;;;;4.70;3.30;;;17.40;1.00;;;;;;5111517;28;20552;-84
2023/09/21 00:17:58;;;;;;;4.07;3.13;;;17.50;1.00;;;;;;5107440;27;20470;-84
2023/09/21 00:20:35;;;;;;;3.57;3.27;;;17.50;1.00;;;;;;5113869;27;20485;-84
2023/09/21 00:23:06;;;;;;;3.87;3.10;;;17.50;1.00;;;;;;5114141;27;20454;-84
2023/09/21 00:25:34;;;;;;;3.77;3.30;;;17.50;1.00;;;;;;5107091;27;20501;-83
2023/09/21 00:28:04;;;;;;;4.57;3.47;;;17.40;1.00;;;;;;5108586;27;21165;-83
2023/09/21 00:30:33;;;;;;;3.50;3.20;;;17.40;1.00;;;;;;5107055;27;20896;-84
2023/09/21 00:33:00;;;;;;;3.83;3.53;;;17.30;1.00;;;;;;5114457;27;21026;-84
2023/09/21 00:35:27;;;;;;;6.27;3.17;;;17.30;1.00;;;;;;5091723;28;20486;-84
2023/09/21 00:37:56;;;;;;;6.50;3.40;;;17.40;1.00;;;;;;5095289;28;20450;-86
2023/09/21 00:40:25;;;;;;;4.20;3.47;;;17.40;1.00;;;;;;5113210;27;20464;-87
2023/09/21 00:42:52;;;;;;;4.50;3.90;;;17.30;1.00;;;;;;5110103;28;20465;-86
2023/09/21 00:45:21;;;;;;;5.03;3.20;;;17.30;1.00;;;;;;5110561;27;20960;-82
2023/09/21 00:47:52;;;;;;;3.37;2.80;;;17.30;1.00;;;;;;5110000;28;20477;-81
2023/09/21 00:50:25;;;;;;;5.20;3.30;;;17.40;1.00;;;;;;5100487;28;20565;-80
2023/09/21 00:52:55;;;;;;;3.70;3.40;;;17.40;1.00;;;;;;5112638;27;20451;-81
2023/09/21 00:55:25;;;;;;;4.60;3.67;;;17.30;1.00;;;;;;5110808;28;20450;-82
2023/09/21 00:57:55;;;;;;;3.90;3.60;;;17.30;1.00;;;;;;5108198;28;20450;-80
2023/09/21 01:00:30;;;;;;;3.53;3.17;;;17.20;1.00;;;;;;5110049;28;20512;-80
2023/09/21 01:03:07;;;;;;;6.33;3.87;;;17.20;1.00;;;;;;5112197;28;20449;-80
2023/09/21 01:05:36;;;;;;;3.70;3.40;;;17.20;1.00;;;;;;5107603;27;20458;-79
2023/09/21 01:08:09;;;;;;;3.53;3.23;;;17.20;1.00;;;;;;5108980;27;20537;-81
2023/09/21 01:10:39;;;;;;;3.90;3.50;;;17.10;1.00;;;;;;5104315;27;20466;-82
2023/09/21 01:13:11;;;;;;;5.23;3.10;;;17.00;1.00;;;;;;5104312;27;20480;-80
2023/09/21 01:15:39;;;;;;;4.10;3.63;;;17.00;1.00;;;;;;5105274;27;20564;-80
2023/09/21 01:18:10;;;;;;;4.70;3.03;;;17.00;1.00;;;;;;5111295;27;21039;-81
2023/09/21 01:20:37;;;;;;;6.53;3.30;;;17.00;1.00;;;;;;5110723;27;20478;-81
2023/09/21 01:23:11;;;;;;;4.00;3.37;;;16.90;1.00;;;;;;5112550;28;20458;-80
2023/09/21 01:25:41;;;;;;;5.30;3.73;;;16.90;1.00;;;;;;5110764;28;20531;-81
2023/09/21 01:28:12;;;;;;;4.80;4.00;;;16.80;1.00;;;;;;5106914;27;20454;-81
2023/09/21 01:30:43;;;;;;;4.73;2.83;;;16.80;1.00;;;;;;5112215;28;22527;-81
2023/09/21 01:33:15;;;;;;;3.57;3.27;;;16.80;1.00;;;;;;5112352;27;20454;-81
2023/09/21 01:35:44;;;;;;;6.10;3.33;;;16.90;1.00;;;;;;5111989;28;20512;-81
2023/09/21 01:38:12;;;;;;;3.50;3.20;;;16.90;1.00;;;;;;5112554;27;20438;-81
2023/09/21 01:40:42;;;;;;;3.73;3.33;;;16.90;1.00;;;;;;5111251;28;20573;-81
2023/09/21 01:43:12;;;;;;;4.93;4.10;;;16.90;1.00;;;;;;5112406;27;20472;-81
2023/09/21 01:45:42;;;;;;;3.30;3.00;;;17.00;1.00;;;;;;5084629;27;20927;-81
2023/09/21 01:48:11;;;;;;;3.97;3.57;;;17.00;1.00;;;;;;5108187;28;20461;-82
2023/09/21 01:50:43;;;;;;;5.83;3.40;;;16.90;1.00;;;;;;5113877;27;20478;-80
2023/09/21 01:53:10;;;;;;;3.60;3.07;;;16.90;1.00;;;;;;5114746;28;20457;-78
2023/09/21 01:55:41;;;;;;;3.73;3.40;;;17.00;1.00;;;;;;5111864;27;20429;-81
2023/09/21 01:58:10;;;;;;;3.20;2.73;;;16.90;1.00;;;;;;5116412;28;20461;-79
2023/09/21 02:00:46;;;;;;;4.30;3.30;;;16.80;1.00;;;;;;5094180;28;20470;-80
2023/09/21 02:03:17;;;;;;;4.57;3.60;;;16.80;1.00;;;;;;5111158;27;20452;-81
2023/09/21 02:05:46;;;;;;;7.53;6.70;;;16.70;1.00;;;;;;5102513;27;20862;-82
2023/09/21 02:08:17;;;;;;;4.03;3.63;;;16.70;1.00;;;;;;5108549;27;20941;-81
2023/09/21 02:10:49;;;;;;;4.00;3.30;;;16.60;1.00;;;;;;5080760;28;20477;-81
2023/09/21 02:13:17;;;;;;;7.70;3.60;;;16.60;1.00;;;;;;5114006;27;21371;-79
2023/09/21 02:15:47;;;;;;;3.80;3.50;;;16.60;1.00;;;;;;5112750;27;20464;-81
2023/09/21 02:18:14;;;;;;;3.90;3.00;;;16.60;1.00;;;;;;5109057;27;20557;-81
2023/09/21 02:20:44;;;;;;;3.67;3.30;;;16.50;1.00;;;;;;5114663;27;20461;-81
2023/09/21 02:23:12;;;;;;;3.90;3.37;;;16.50;1.00;;;;;;5103056;27;20461;-79
2023/09/21 02:25:41;;;;;;;5.50;3.60;;;16.50;1.00;;;;;;5111737;27;20462;-80
2023/09/21 02:28:11;;;;;;;4.60;4.00;;;16.50;1.00;;;;;;5116245;28;20933;-80
2023/09/21 02:30:40;;;;;;;3.43;3.13;;;16.50;1.00;;;;;;5109311;27;20584;-81
2023/09/21 02:33:08;;;;;;;3.70;3.20;;;16.50;1.00;;;;;;5106228;27;20438;-80
2023/09/21 02:35:41;;;;;;;4.07;3.67;;;16.50;1.00;;;;;;5109277;27;20457;-81
2023/09/21 02:38:11;;;;;;;4.60;3.50;;;16.50;1.00;;;;;;5110578;27;20470;-81
2023/09/21 02:40:39;;;;;;;3.70;3.30;;;16.40;1.00;;;;;;5113651;27;21261;-80
2023/09/21 02:43:08;;;;;;;4.00;3.70;;;16.40;1.00;;;;;;5115471;27;20458;-80
2023/09/21 02:45:40;;;;;;;5.47;4.47;;;16.40;1.00;;;;;;5111973;27;20465;-79
2023/09/21 02:48:07;;;;;;;4.30;3.77;;;16.50;1.00;;;;;;5110450;28;20458;-81
2023/09/21 02:50:38;;;;;;;3.90;3.50;;;16.40;1.00;;;;;;5114488;27;20477;-82
2023/09/21 02:53:08;;;;;;;11.80;4.53;;;16.40;1.00;;;;;;5114466;27;20455;-81
2023/09/21 02:55:36;;;;;;;3.33;3.03;;;16.30;1.00;;;;;;5111792;27;20965;-80
2023/09/21 02:58:09;;;;;;;6.10;4.90;;;16.30;1.00;;;;;;5115109;27;20474;-82
2023/09/21 03:00:42;;;;;;;4.30;3.90;;;16.20;1.00;;;;;;5114236;27;20474;-82
2023/09/21 03:03:13;;;;;;;3.70;3.37;;;16.30;1.00;;;;;;5108459;27;20442;-80
2023/09/21 03:05:41;;;;;;;3.57;3.27;;;16.30;1.00;;;;;;5113996;27;20427;-81
2023/09/21 03:08:13;;;;;;;4.07;3.20;;;16.30;1.00;;;;;;5112596;27;20456;-82
2023/09/21 03:10:43;;;;;;;4.07;3.77;;;16.30;1.00;;;;;;5111691;28;20536;-81
2023/09/21 03:13:17;;;;;;;6.10;3.87;;;16.30;1.00;;;;;;5117144;27;20476;-83
2023/09/21 03:15:47;;;;;;;4.23;3.50;;;16.30;1.00;;;;;;5112473;28;20430;-81
2023/09/21 03:18:15;;;;;;;4.30;3.90;;;16.30;1.00;;;;;;5109989;27;20444;-83
2023/09/21 03:20:43;;;;;;;5.40;3.63;;;16.30;1.00;;;;;;5105567;27;20440;-84
2023/09/21 03:23:12;;;;;;;8.57;5.40;;;16.20;1.00;;;;;;5108426;27;20470;-80
2023/09/21 03:25:43;;;;;;;4.03;3.70;;;16.10;1.00;;;;;;5106035;27;20504;-82
2023/09/21 03:28:13;;;;;;;3.83;3.27;;;16.10;1.00;;;;;;5108999;27;20482;-82
2023/09/21 03:30:40;;;;;;;4.63;4.23;;;16.00;1.00;;;;;;5108879;27;20539;-83
2023/09/21 03:33:12;;;;;;;6.73;4.80;;;16.00;1.00;;;;;;5109987;27;21414;-81
2023/09/21 03:35:40;;;;;;;6.93;4.60;;;16.00;1.00;;;;;;5108906;27;20481;-81
2023/09/21 03:38:12;;;;;;;7.10;4.70;;;15.90;1.00;;;;;;5108334;27;20465;-81
2023/09/21 03:40:39;;;;;;;13.90;12.60;;;15.90;1.00;;;;;;5104366;27;20478;-81
2023/09/21 03:43:10;;;;;;;7.13;5.00;;;15.90;1.00;;;;;;5103083;27;20545;-80
2023/09/21 03:45:38;;;;;;;4.73;3.63;;;15.90;1.00;;;;;;5114892;27;20453;-80
2023/09/21 03:48:08;;;;;;;5.60;3.87;;;15.80;1.00;;;;;;5113270;28;20462;-81
2023/09/21 03:50:42;;;;;;;9.90;5.00;;;15.80;1.00;;;;;;5115176;28;20477;-81
2023/09/21 03:53:10;;;;;;;9.10;4.37;;;15.80;1.00;;;;;;5113403;27;20452;-82
2023/09/21 03:55:38;;;;;;;5.40;4.37;;;15.70;1.00;;;;;;5109705;27;21061;-82
2023/09/21 03:58:08;;;;;;;4.77;4.27;;;15.70;1.00;;;;;;5112014;27;21055;-81
2023/09/21 04:00:37;;;;;;;5.23;4.67;;;15.60;1.00;;;;;;5107479;27;20476;-80
2023/09/21 04:03:06;;;;;;;5.03;4.43;;;15.60;1.00;;;;;;5102974;27;20494;-82
2023/09/21 04:05:35;;;;;;;7.63;4.37;;;15.60;1.00;;;;;;5105698;27;21292;-81
2023/09/21 04:08:04;;;;;;;4.10;3.70;;;15.60;1.00;;;;;;5110610;27;20534;-81
2023/09/21 04:10:31;;;;;;;4.50;4.10;;;15.60;1.00;;;;;;5109611;27;20488;-81
2023/09/21 04:13:00;;;;;;;6.23;4.03;;;15.70;1.00;;;;;;5109731;27;20453;-82
2023/09/21 04:15:33;;;;;;;4.83;4.27;;;15.70;1.00;;;;;;5117835;28;20470;-81
2023/09/21 04:18:08;;;;;;;5.03;4.60;;;15.80;1.00;;;;;;5114416;28;21150;-81
2023/09/21 04:20:35;;;;;;;6.60;4.90;;;15.70;1.00;;;;;;5114037;28;20567;-83
2023/09/21 04:23:10;;;;;;;7.67;4.60;;;15.60;1.00;;;;;;5114069;28;20452;-81
2023/09/21 04:25:39;;;;;;;4.87;4.43;;;15.60;1.00;;;;;;5076724;27;20445;-84
2023/09/21 04:28:09;;;;;;;5.30;4.23;;;15.60;1.00;;;;;;5100475;27;20472;-83
2023/09/21 04:30:37;;;;;;;5.03;4.10;;;15.60;1.00;;;;;;5110438;27;20565;-83
2023/09/21 04:33:06;;;;;;;4.77;4.33;;;15.70;1.00;;;;;;5113961;28;20446;-81
2023/09/21 04:35:36;;;;;;;3.97;3.40;;;15.60;1.00;;;;;;5111262;27;20511;-85
2023/09/21 04:38:04;;;;;;;4.53;4.13;;;15.60;1.00;;;;;;5113087;28;20480;-84
2023/09/21 04:40:35;;;;;;;7.37;4.83;;;15.70;1.00;;;;;;5112331;28;20527;-84
2023/09/21 04:43:04;;;;;;;5.53;3.60;;;15.70;1.00;;;;;;5115081;28;21244;-83
2023/09/21 04:45:36;;;;;;;8.40;5.23;;;15.80;1.00;;;;;;5106991;27;20457;-83
2023/09/21 04:48:04;;;;;;;6.50;4.97;;;15.80;1.00;;;;;;5116389;27;20421;-83
2023/09/21 04:50:31;;;;;;;5.80;4.30;;;15.70;1.00;;;;;;5108482;27;20478;-82
2023/09/21 04:52:59;;;;;;;9.93;7.07;;;15.80;1.00;;;;;;5113577;27;20460;-81
2023/09/21 04:55:26;;;;;;;5.83;5.23;;;15.80;1.00;;;;;;5110196;27;20513;-78
2023/09/21 04:57:56;;;;;;;5.83;4.23;;;15.80;1.00;;;;;;5112629;27;20556;-82
2023/09/21 05:00:24;;;;;;;6.73;4.90;;;15.80;1.00;;;;;;5111529;27;21033;-81
2023/09/21 05:02:51;;;;;;;9.90;5.00;;;15.80;1.00;;;;;;5112895;27;20457;-82
2023/09/21 05:05:18;;;;;;;5.10;4.57;;;15.70;1.00;;;;;;5111999;28;20977;-82
2023/09/21 05:07:45;;;;;;;4.50;4.10;;;15.70;1.00;;;;;;5117047;28;20511;-80
2023/09/21 05:10:14;;;;;;;5.30;4.03;;;15.70;1.00;;;;;;5115435;27;20461;-80
2023/09/21 05:12:41;;;;;;;7.17;4.80;;;15.70;1.00;;;;;;5106567;28;20438;-82
2023/09/21 05:15:14;;;;;;;4.70;4.23;;;15.70;1.00;;;;;;5119024;27;20478;-81
2023/09/21 05:17:42;;;;;;;6.07;4.97;;;15.70;1.00;;;;;;5115162;28;21068;-81
2023/09/21 05:20:10;;;;;;;6.53;4.27;;;15.80;1.00;;;;;;5114187;27;20508;-82
2023/09/21 05:22:39;;;;;;;6.60;5.20;;;15.70;1.00;;;;;;5111646;28;20618;-82
2023/09/21 05:25:07;;;;;;;5.30;4.80;;;15.80;1.00;;;;;;5114878;28;20461;-83
2023/09/21 05:27:35;;;;;;;5.83;4.80;;;15.70;1.00;;;;;;5114009;28;20464;-82
2023/09/21 05:30:03;;;;;;;8.87;4.80;;;15.80;1.00;;;;;;5111180;28;20499;-82
2023/09/21 05:32:36;;;;;;;7.77;5.50;;;15.80;1.00;;;;;;5111394;28;21269;-82
2023/09/21 05:35:03;;;;;;;7.20;5.40;;;15.90;1.00;;;;;;5107271;27;20476;-84
2023/09/21 05:37:30;;;;;;;8.13;5.27;;;15.90;1.00;;;;;;5112783;27;20473;-83
2023/09/21 05:39:57;;;;;;;5.97;5.10;;;15.90;1.00;;;;;;5107679;27;20531;-84
2023/09/21 05:42:25;;;;;;;6.23;5.57;;;16.00;1.00;;;;;;5108485;27;20464;-83
2023/09/21 05:45:13;;;;;;;6.40;4.90;;;16.10;1.00;;;;;;5114031;27;20469;-83
2023/09/21 05:47:50;;;;;;;6.83;4.80;;;16.10;1.00;;;;;;5093344;27;20572;-83
2023/09/21 05:50:24;;;;;;;7.17;5.23;;;16.10;1.00;;;;;;5097534;27;20919;-83
2023/09/21 05:52:58;;;;;;;5.43;4.93;;;16.20;1.00;;;;;;5118701;27;20595;-83
2023/09/21 05:55:26;;;;;;;4.93;4.43;;;16.20;1.00;;;;;;5101569;28;20991;-83
2023/09/21 05:57:59;;;;;;;7.30;5.50;;;16.30;1.00;;;;;;5120750;27;20457;-86
2023/09/21 06:00:28;;;;;;;7.60;5.10;;;16.30;1.00;;;;;;5113962;27;20509;-83
2023/09/21 06:02:59;;;;;;;5.83;5.33;;;16.30;1.00;;;;;;5113757;28;20457;-86
2023/09/21 06:05:27;;;;;;;5.00;4.40;;;16.40;1.00;;;;;;5102066;27;20473;-80
2023/09/21 06:07:54;;;;;;;6.57;5.30;;;16.50;1.00;;;;;;5111701;27;20456;-79
2023/09/21 06:10:22;;;;;;;5.10;4.60;;;16.40;1.00;;;;;;5107524;28;20592;-85
2023/09/21 06:12:51;;;;;;;6.93;5.90;;;16.50;1.00;;;;;;5106526;27;20999;-84
2023/09/21 06:15:19;;;;;;;5.43;4.80;;;16.40;1.00;;;;;;5107596;27;20470;-81
2023/09/21 06:17:46;;;;;;;4.70;4.30;;;16.50;1.00;;;;;;5109320;27;20485;-79
2023/09/21 06:20:20;;;;;;;5.13;4.63;;;16.50;1.00;;;;;;5109429;27;20548;-82
2023/09/21 06:22:47;;;;;;;5.00;4.50;;;16.40;1.00;;;;;;5111352;27;21727;-83
2023/09/21 06:25:14;;;;;;;6.03;5.00;;;16.40;1.00;;;;;;5111862;28;20525;-84
2023/09/21 06:27:42;;;;;;;5.10;4.70;;;16.40;1.00;;;;;;5114621;27;20418;-85
2023/09/21 06:30:12;;;;;;;5.67;5.10;;;16.40;1.00;;;;;;5110039;27;20461;-87
2023/09/21 06:32:39;;;;;;;8.83;4.40;;;16.40;1.00;;;;;;5103871;27;21381;-83
2023/09/21 06:35:08;;;;;;;5.40;4.90;;;16.40;1.00;;;;;;5117480;28;20539;-78
2023/09/21 06:37:37;;;;;;;5.10;4.50;;;16.40;1.00;;;;;;5112124;28;20441;-84
2023/09/21 06:40:07;;;;;;;4.80;4.40;;;16.50;1.00;;;;;;5098443;28;20493;-85
2023/09/21 06:42:37;;;;;;;6.00;4.47;;;16.50;1.00;;;;;;5115398;27;20659;-83
2023/09/21 06:45:05;;;;;;;6.40;4.60;;;16.60;1.00;;;;;;5115347;27;20460;-84
2023/09/21 06:47:33;;;;;;;4.97;4.50;;;16.70;1.00;;;;;;5115694;27;20473;-86
2023/09/21 06:50:00;;;;;;;5.00;4.53;;;16.80;1.00;;;;;;5116205;27;20534;-87
2023/09/21 06:52:28;;;;;;;5.50;4.87;;;17.00;1.00;;;;;;5122739;27;20454;-87
2023/09/21 06:55:00;;;;;;;6.57;5.07;;;17.20;1.00;;;;;;5116571;27;20521;-91
2023/09/21 06:57:28;;;;;;;5.83;5.23;;;17.50;1.00;;;;;;5110524;27;20469;-89
2023/09/21 06:59:57;;;;;;;5.97;4.90;;;17.70;1.00;;;;;;5118692;28;20465;-84
2023/09/21 07:02:24;;;;;;;4.67;4.27;;;17.90;1.00;;;;;;5112374;27;20490;-86
2023/09/21 07:04:51;;;;;;;6.63;4.17;;;18.00;1.00;;;;;;5116234;27;20471;-89
2023/09/21 07:07:18;;;;;;;6.07;4.93;;;18.10;1.00;;;;;;5113872;28;20497;-87
2023/09/21 07:09:45;;;;;;;6.40;5.03;;;18.30;1.00;;;;;;5114573;27;20474;-87
2023/09/21 07:12:17;;;;;;;7.17;4.60;;;18.40;1.00;;;;;;5115602;27;20871;-88
2023/09/21 07:14:49;;;;;;;4.80;4.03;;;18.70;1.00;;;;;;5116793;27;20460;-85
2023/09/21 07:17:16;;;;;;;5.87;4.73;;;18.90;1.00;;;;;;5114771;27;20499;-84
2023/09/21 07:19:44;;;;;;;6.03;4.30;;;19.10;1.00;;;;;;5111713;27;20477;-83
2023/09/21 07:22:13;;;;;;;7.53;4.30;;;19.20;1.00;;;;;;5117696;27;20428;-83
2023/09/21 07:24:40;;;;;;;6.80;4.70;;;19.30;1.00;;;;;;5113990;28;20515;-81
2023/09/21 07:27:07;;;;;;;6.57;4.40;;;19.40;1.00;;;;;;5114395;27;21078;-83
2023/09/21 07:29:36;;;;;;;8.10;5.00;;;19.50;1.00;;;;;;5108366;27;20540;-79
2023/09/21 07:32:04;;;;;;;6.73;5.27;;;19.60;1.00;;;;;;5108426;28;20465;-80
2023/09/21 07:34:34;;;;;;;7.07;4.27;;;19.70;1.00;;;;;;5111766;27;20992;-79
2023/09/21 07:37:03;;;;;;;6.00;5.17;;;19.80;1.00;;;;;;5108934;27;20477;-78
2023/09/21 07:39:30;;;;;;;4.63;3.60;;;19.90;1.00;;;;;;5108971;28;20512;-79
2023/09/21 07:41:59;;;;;;;4.50;4.10;;;20.00;1.00;;;;;;5109686;27;20539;-78
2023/09/21 07:44:26;;;;;;;5.70;4.40;;;20.20;1.00;;;;;;5110292;27;20511;-77
2023/09/21 07:46:56;;;;;;;5.80;3.90;;;20.40;1.00;;;;;;5108401;27;20472;-78
2023/09/21 07:49:25;;;;;;;7.70;3.97;;;20.50;1.00;;;;;;5104123;27;20469;-79
2023/09/21 07:51:55;;;;;;;3.97;3.67;;;20.60;1.00;;;;;;5102733;27;21244;-78
2023/09/21 07:54:22;;;;;;;4.80;4.10;;;20.80;1.00;;;;;;5091858;28;20518;-78
2023/09/21 07:56:49;;;;;;;5.53;3.97;;;20.80;1.00;;;;;;5106965;27;20451;-79
2023/09/21 07:59:17;;;;;;;4.10;3.67;;;20.70;1.00;;;;;;5107591;27;20471;-79
2023/09/21 08:01:44;;;;;;;6.43;3.83;;;20.90;1.00;;;;;;5106178;27;20462;-79
2023/09/21 08:04:13;;;;;;;4.13;3.80;;;20.90;1.00;;;;;;5110402;27;20948;-79
2023/09/21 08:06:40;;;;;;;5.40;3.57;;;21.00;1.00;;;;;;5106835;27;20531;-77
2023/09/21 08:09:08;;;;;;;5.03;3.30;;;21.20;1.00;;;;;;5107508;28;20475;-77
2023/09/21 08:11:35;;;;;;;5.53;3.80;;;21.30;1.00;;;;;;5108723;27;20463;-77
2023/09/21 08:14:03;;;;;;;7.33;4.00;;;21.40;1.00;;;;;;5089366;28;20471;-79
2023/09/21 08:16:32;;;;;;;5.67;4.47;;;21.60;1.00;;;;;;5108928;28;20431;-81
2023/09/21 08:19:01;;;;;;;4.53;3.63;;;21.70;1.00;;;;;;5112630;27;21062;-85
2023/09/21 08:21:30;;;;;;;6.00;3.70;;;21.80;1.00;;;;;;5111679;27;20462;-84
2023/09/21 08:23:57;;;;;;;3.80;3.50;;;21.90;1.00;;;;;;5111736;27;20473;-81
2023/09/21 08:26:25;;;;;;;5.23;4.50;;;22.00;1.00;;;;;;5113967;27;20428;-82
2023/09/21 08:28:52;;;;;;;3.90;3.50;;;22.20;1.00;;;;;;5120986;27;20564;-88
2023/09/21 08:31:21;;;;;;;3.90;3.50;;;22.30;1.00;;;;;;5116215;27;20420;-86
2023/09/21 08:33:49;;;;;;;5.67;3.20;;;22.40;1.00;;;;;;5094096;27;21275;-86
2023/09/21 08:36:17;;;;;;;3.30;3.10;;;22.50;1.00;;;;;;5108158;27;20426;-89
2023/09/21 08:38:45;;;;;;;3.80;3.07;;;22.60;1.00;;;;;;5119860;28;20516;-87
2023/09/21 08:41:14;;;;;;;6.57;2.97;;;22.60;1.00;;;;;;5104514;27;21356;-87
2023/09/21 08:43:41;;;;;;;8.33;4.20;;;22.70;1.00;;;;;;5113348;27;20426;-80
2023/09/21 08:46:11;;;;;;;5.17;3.47;;;22.80;1.00;;;;;;5119183;27;20957;-84
2023/09/21 08:48:43;;;;;;;6.27;2.93;;;22.90;1.00;;;;;;5115696;27;20602;-83
2023/09/21 08:51:15;;;;;;;3.90;2.97;;;23.00;1.00;;;;;;5116878;27;21284;-85
2023/09/21 08:53:46;;;;;;;4.57;3.53;;;23.10;1.00;;;;;;5123262;27;20418;-85
2023/09/21 08:56:16;;;;;;;3.43;3.03;;;23.30;1.00;;;;;;5122276;27;20508;-86
2023/09/21 08:58:44;;;;;;;5.93;2.90;;;23.40;1.00;;;;;;5120570;27;20514;-86
2023/09/21 09:01:13;;;;;;;4.40;3.10;;;23.50;1.00;;;;;;5119558;27;20464;-85
2023/09/21 09:03:41;;;;;;;3.93;3.10;;;23.70;1.00;;;;;;5106412;27;20528;-86
2023/09/21 09:06:09;;;;;;;7.13;3.00;;;23.90;1.00;;;;;;5117067;27;20824;-82
2023/09/21 09:08:36;;;;;;;5.10;3.30;;;24.50;1.00;;;;;;5115179;27;20504;-82
2023/09/21 09:11:03;;;;;;;5.23;3.10;;;25.70;1.00;;;;;;5113224;27;20486;-84
2023/09/21 09:13:33;;;;;;;4.60;3.23;;;27.50;1.00;;;;;;5115508;27;20481;-85
2023/09/21 09:16:03;;;;;;;2.77;2.50;;;29.00;1.00;;;;;;5111373;27;21191;-83
2023/09/21 09:18:33;;;;;;;3.10;2.90;;;29.70;1.00;;;;;;5112764;27;20480;-83
2023/09/21 09:21:01;;;;;;;3.60;2.90;;;30.40;1.00;;;;;;5116452;27;21307;-81
2023/09/21 09:23:41;;;;;;;5.53;2.90;;;31.10;1.00;;;;;;5115668;27;20488;-84
2023/09/21 09:26:11;;;;;;;4.57;2.90;;;31.50;1.00;;;;;;5114130;28;20461;-83
2023/09/21 09:28:40;;;;;;;5.10;3.17;;;31.80;1.00;;;;;;5116898;27;20555;-83
2023/09/21 09:31:10;;;;;;;4.47;3.30;;;31.70;1.00;;;;;;5110258;27;20464;-82
2023/09/21 09:33:39;;;;;;;3.57;3.27;;;32.20;1.00;;;;;;5114685;27;20525;-82
2023/09/21 09:36:16;;;;;;;4.60;2.90;;;32.40;1.00;;;;;;5114487;27;20406;-83
2023/09/21 09:38:43;;;;;;;3.87;3.17;;;32.80;1.00;;;;;;5113745;27;20427;-82
2023/09/21 09:41:15;;;;;;;3.00;2.80;;;33.20;1.00;;;;;;5116873;27;20456;-83
2023/09/21 09:43:47;;;;;;;6.87;3.40;;;33.70;1.00;;;;;;5113170;27;20434;-85
2023/09/21 09:46:16;;;;;;;3.00;2.33;;;34.40;1.00;;;;;;5113546;27;20572;-80
2023/09/21 09:48:44;;;;;;;6.03;3.17;;;34.60;1.00;;;;;;5110837;27;20507;-81
2023/09/21 09:51:17;;;;;;;3.07;2.43;;;34.90;1.00;;;;;;5111986;27;20449;-82
2023/09/21 09:53:47;;;;;;;3.70;2.90;;;34.80;1.00;;;;;;5112769;27;20976;-81
2023/09/21 09:56:17;;;;;;;4.63;2.63;;;35.40;1.00;;;;;;5095751;28;21031;-86
2023/09/21 09:58:50;;;;;;;4.23;2.70;;;35.70;1.00;;;;;;5116375;27;20453;-86
2023/09/21 10:01:20;;;;;;;4.30;3.00;;;36.10;1.00;;;;;;5115194;27;20446;-83
2023/09/21 10:03:50;;;;;;;3.50;3.10;;;36.30;1.00;;;;;;5110727;27;20457;-83
2023/09/21 10:06:18;;;;;;;4.30;3.23;;;36.30;1.00;;;;;;5118165;27;20522;-82
2023/09/21 10:08:47;;;;;;;2.57;2.03;;;36.00;1.00;;;;;;5117196;27;20418;-82
2023/09/21 10:11:16;;;;;;;2.67;2.10;;;36.90;1.00;;;;;;5117654;27;20506;-82
2023/09/21 10:14:13;;;;;;;3.23;2.17;;;37.30;1.00;;;;;;5101663;28;20464;-82
2023/09/21 10:16:49;;;;;;;2.57;2.37;;;36.40;1.00;;;;;;5105610;27;20445;-81
2023/09/21 10:19:25;;;;;;;3.33;3.03;;;36.50;1.00;;;;;;5094963;28;20507;-79
2023/09/21 10:21:57;;;;;;;3.97;2.20;;;36.60;1.00;;;;;;5118189;27;20899;-80
2023/09/21 10:24:26;;;;;;;2.80;1.80;;;37.20;1.00;;;;;;5114432;27;20964;-80
2023/09/21 10:26:54;;;;;;;1.60;1.50;;;37.80;1.00;;;;;;5117333;28;20484;-80
2023/09/21 10:29:28;;;;;;;2.60;2.20;;;38.20;1.00;;;;;;5115361;27;20480;-80
2023/09/21 10:31:57;;;;;;;2.50;1.93;;;39.00;1.00;;;;;;5095828;28;20440;-80
2023/09/21 10:34:27;;;;;;;3.40;2.77;;;39.40;1.00;;;;;;5114001;27;21729;-78
2023/09/21 10:37:00;;;;;;;2.50;2.30;;;38.40;1.00;;;;;;5115353;28;20488;-79
2023/09/21 10:39:29;;;;;;;2.67;2.47;;;36.90;1.00;;;;;;5097975;28;20503;-81
2023/09/21 10:42:18;;;;;;;2.50;2.30;;;36.60;1.00;;;;;;5117113;27;20850;-79
2023/09/21 10:45:04;;;;;;;2.60;2.13;;;36.10;1.00;;;;;;5116063;27;20456;-80
2023/09/21 10:47:38;;;;;;;2.47;2.20;;;36.50;1.00;;;;;;5115787;28;20465;-80
2023/09/21 10:50:10;;;;;;;2.63;2.10;;;36.40;1.00;;;;;;5085013;28;20911;-80
2023/09/21 10:52:40;;;;;;;2.27;2.07;;;36.00;1.00;;;;;;5097606;28;20473;-81
2023/09/21 10:55:11;;;;;;;2.37;1.97;;;36.30;1.00;;;;;;5115663;27;20494;-80
2023/09/21 10:57:39;;;;;;;3.13;2.23;;;37.20;1.00;;;;;;5107231;27;20484;-81
2023/09/21 11:00:16;;;;;;;3.00;1.90;;;37.10;1.00;;;;;;5113773;28;20441;-80
2023/09/21 11:02:46;;;;;;;2.63;2.23;;;37.60;1.00;;;;;;5094683;28;20873;-81
2023/09/21 11:05:16;;;;;;;2.77;2.30;;;38.30;1.00;;;;;;5112770;27;20995;-81
2023/09/21 11:07:44;;;;;;;3.23;2.27;;;37.20;1.00;;;;;;5111862;27;20450;-80
2023/09/21 11:10:14;;;;;;;3.30;2.20;;;37.70;1.00;;;;;;5115400;27;20469;-80
2023/09/21 11:12:41;;;;;;;2.60;2.17;;;38.60;1.00;;;;;;5115905;27;20468;-80
2023/09/21 11:15:13;;;;;;;3.77;2.27;;;39.50;1.00;;;;;;5113108;27;20954;-80
2023/09/21 11:17:42;;;;;;;3.83;2.63;;;40.40;1.00;;;;;;5112642;27;20940;-81
2023/09/21 11:20:12;;;;;;;3.20;2.00;;;40.30;1.00;;;;;;5112233;27;20560;-77
2023/09/21 11:22:44;;;;;;;5.93;2.80;;;39.90;1.00;;;;;;5107798;27;20485;-79
2023/09/21 11:25:14;;;;;;;2.50;2.30;;;40.40;1.00;;;;;;5092771;28;20458;-79
2023/09/21 11:27:42;;;;;;;2.57;1.90;;;41.10;1.00;;;;;;5114884;27;20458;-78
2023/09/21 11:30:13;;;;;;;2.50;2.00;;;41.00;1.00;;;;;;5114079;27;20465;-81
2023/09/21 11:32:48;;;;;;;3.63;2.13;;;41.10;1.00;;;;;;5116453;28;20808;-80
2023/09/21 11:35:17;;;;;;;2.30;1.97;;;41.90;1.00;;;;;;5114854;27;21448;-82
2023/09/21 11:37:45;;;;;;;1.97;1.87;;;41.30;1.00;;;;;;5113418;27;20474;-80
2023/09/21 11:40:13;;;;;;;2.13;2.03;;;42.00;1.00;;;;;;5111264;27;20476;-79
2023/09/21 11:42:45;;;;;;;4.57;2.40;;;42.50;1.00;;;;;;5112835;28;22445;-79
2023/09/21 11:45:24;;;;;;;2.40;2.20;;;43.20;1.00;;;;;;5114543;28;20426;-80
2023/09/21 11:47:54;;;;;;;2.27;2.07;;;42.00;1.00;;;;;;5095857;28;20432;-80
2023/09/21 11:50:25;;;;;;;4.40;2.13;;;42.50;1.00;;;;;;5111479;27;20438;-81
2023/09/21 11:52:54;;;;;;;2.43;2.23;;;42.90;1.00;;;;;;5111067;27;20440;-80
2023/09/21 11:55:23;;;;;;;6.03;2.70;;;42.90;1.00;;;;;;5115615;27;20460;-80
2023/09/21 11:57:51;;;;;;;2.33;1.90;;;43.50;1.00;;;;;;5114946;27;20442;-83
2023/09/21 12:00:37;;;;;;;2.40;2.20;;;43.90;1.00;;;;;;5114182;27;20620;-82
2023/09/21 12:03:04;;;;;;;2.20;2.00;;;44.50;1.00;;;;;;5087213;28;20505;-78
2023/09/21 12:05:32;;;;;;;4.67;2.13;;;43.70;1.00;;;;;;5111743;28;20511;-79
2023/09/21 12:07:59;;;;;;;6.53;4.90;;;43.70;1.00;;;;;;5111254;27;20441;-79
2023/09/21 12:10:29;;;;;;;2.10;1.90;;;43.00;1.00;;;;;;5113664;27;20566;-80
2023/09/21 12:12:57;;;;;;;2.77;1.93;;;43.30;1.00;;;;;;5114253;27;21109;-81
2023/09/21 12:15:26;;;;;;;2.00;1.90;;;43.10;1.00;;;;;;5095305;28;20552;-81
2023/09/21 12:17:53;;;;;;;2.87;2.17;;;42.30;1.00;;;;;;5112990;27;20452;-80
2023/09/21 12:20:21;;;;;;;2.93;1.97;;;41.90;1.00;;;;;;5114599;27;20478;-81
2023/09/21 12:22:48;;;;;;;3.53;2.60;;;42.20;1.00;;;;;;5095877;27;20785;-80
2023/09/21 12:25:16;;;;;;;4.30;2.50;;;43.10;1.00;;;;;;5114093;27;20425;-83
2023/09/21 12:27:45;;;;;;;2.73;1.80;;;43.60;1.00;;;;;;5112679;27;20539;-79
2023/09/21 12:30:14;;;;;;;3.80;1.97;;;43.20;1.00;;;;;;5113588;27;20456;-83
2023/09/21 12:32:43;;;;;;;2.03;1.80;;;43.00;1.00;;;;;;5114173;27;20938;-79
2023/09/21 12:35:11;;;;;;;3.60;2.87;;;43.50;1.00;;;;;;5111764;27;20490;-79
2023/09/21 12:37:40;;;;;;;3.43;2.30;;;44.30;1.00;;;;;;5112146;27;20886;-79
2023/09/21 12:40:11;;;;;;;1.80;1.70;;;43.30;1.00;;;;;;5102388;27;20466;-79
2023/09/21 12:42:41;;;;;;;3.10;2.07;;;43.80;1.00;;;;;;5109555;27;20453;-80
2023/09/21 12:45:14;;;;;;;3.00;2.23;;;43.80;1.00;;;;;;5116358;27;20833;-82
2023/09/21 12:47:43;;;;;;;2.90;2.60;;;43.10;1.00;;;;;;5084371;27;20526;-82
2023/09/21 12:50:12;;;;;;;2.20;2.00;;;42.00;1.00;;;;;;5102639;27;20477;-81
2023/09/21 12:52:42;;;;;;;2.17;1.90;;;42.20;1.00;;;;;;5092742;27;20456;-82
2023/09/21 12:55:11;;;;;;;2.60;2.40;;;42.50;1.00;;;;;;5114492;27;20949;-82
2023/09/21 12:57:47;;;;;;;4.83;2.33;;;42.10;1.00;;;;;;5118591;27;20428;-81
2023/09/21 13:00:17;;;;;;;2.27;2.03;;;43.00;1.00;;;;;;5119374;28;20429;-83
2023/09/21 13:03:12;;;;;;;4.03;2.60;;;43.80;1.00;;;;;;5088660;28;20503;-84
2023/09/21 13:05:43;;;;;;;2.40;2.20;;;43.80;1.00;;;;;;5118544;28;20493;-85
2023/09/21 13:08:12;;;;;;;2.40;2.23;;;41.70;1.00;;;;;;5099421;28;20428;-85
2023/09/21 13:10:41;;;;;;;3.73;2.60;;;38.20;1.00;;;;;;5103907;27;20569;-88